KNGU/NGU METAR and TAF weather

Enter ICAO airport designator
Station Type Date Time Source
KNGU METAR 2019/04/18 13:59 UTC NOAA

KNGU 181359Z 20007KT 10SM BKN300 22/14 A3006 RMK AO2 SLP180 NMRS ACFT TRAILS T02170139


Station Type Date Time Source
KNGU Decoded METAR 2019/04/18 13:59 UTC NOAA

Norfolk, Naval Air Station, VA, United States (KNGU) 36-56-01N 076-17-45W 8M
Apr 18, 2019 - 09:59 AM EDT / 2019.04.18 1359 UTC
Wind: from the SSW (200 degrees) at 8 MPH (7 KT):0
Visibility: 10 mile(s):0
Sky conditions: mostly cloudy
Temperature: 71.1 F (21.7 C)
Dew Point: 57.0 F (13.9 C)
Relative Humidity: 61%
Pressure (altimeter): 30.06 in. Hg (1017 hPa)
ob: KNGU 181359Z 20007KT 10SM BKN300 22/14 A3006 RMK AO2 SLP180 NMRS ACFT TRAILS T02170139
cycle: 14

Station Type Date Time Source
KNGU TAF 2019/04/18 07:18 UTC NOAA

TAF KNGU 1807/1907 17005KT 9999 BKN190 BKN280 QNH2996INS
BECMG 1812/1814 19010KT 9999 SCT280 QNH2992INS
BECMG 1819/1821 18013G23KT 9999 SCT280 QNH2986INS T12/1810Z T28/1819Z FN00210

Example: see airport list